Kincheloe, MI

8:18 AM EDT on October 24, 2014 (GMT -0400)
Chippewa County International | Change Station
CLOSE
Current Station
Airport
Location: Chippewa,
Elevation: 801 ft
Nearby Weather Stations

Elev 801 ft 46.25 °N, 84.48 °W | Updated 3 minutes ago

Overcast
Overcast
46 °F
Feels Like 44 °F
N
6
Wind Variable Wind from South

Today
High -- | Low -- °F
--% Chance of Precip.
Yesterday
High -- | Low -- °F
Precip. -- in
8:07 AM 6:35 PM
New Moon, 0% visible
Pressure 29.99 in
Visibility 9.0 miles
Clouds Overcast 1100 ft
Windchill 44 °F
Dew Point 45 °F
Humidity 93%
Rainfall 0.00 in
Snow Depth Not available.
UV 0 out of 12
Pollen .60 out of 12
PM2.5 Good
Flu Activity Sporadic
METAR KCIU 241215Z AUTO 17005KT 9SM OVC011 08/07 A2999 RMK AO1

More Conditions Fewer Conditions

Pressure 29.99 in
Visibility 9.0 miles
Clouds Overcast 1100 ft
Windchill 44 °F
Dew Point 45 °F
Humidity 93%
Rainfall 0.00 in
Snow Depth Not available.
UV 0 out of 12
Pollen .60 out of 12
PM2.5 Good
Flu Activity Sporadic
METAR KCIU 241215Z AUTO 17005KT 9SM OVC011 08/07 A2999 RMK AO1

More Conditions Fewer Conditions

Nowcast | as of 8:00 am EDT on October 24, 2014

At 9 am...cloudy. Patchy fog. Patchy drizzle. Temperature 44. Light winds. At 11 am...cloudy. Patchy fog. Patchy drizzle. Temperature 47. South winds 6 mph. At 1 PM...mostly cloudy. Temperature 51. South winds 6 mph. At 3 PM...mostly cloudy. Temperature 52. South winds 7 mph.

×

10-Day Weather Forecast

Almanac

Astronomy

Oct. 24, 2014 Rise Set
Actual Time 8:07 AM EDT 6:35 PM EDT
Civil Twilight 7:36 AM EDT 7:06 PM EDT
Nautical Twilight 7:01 AM EDT 7:41 PM EDT
Astronomical Twilight 6:26 AM EDT 8:16 PM EDT
Moon 8:47 AM EDT 7:12 PM EDT
Length of Visible Light 11h 29m
Length of Day
10h 28m
Tomorrow will be 3m 4s shorter.
New Moon, 0% of the Moon is Illuminated
Today
New Moon
Oct 30
First Quarter
Nov 6
Full
Nov 14
Last Quarter
Nov 22
New

Today's Extremes

State Highs State Lows

Community

WunderPhotos

Upload Photos

1,764,530 photos uploaded!

Nearby

Air Quality

  Air Quality AQ Index Pollutant
Yesterday Good
PM2.5
Current Good
PM2.5
Friday Good
PM2.5
Saturday Good
PM2.5
Sunday Good
PM2.5
Monday Good
PM2.5

Snow Depth

Station Depth Elevation
No new snow has been reported.

Earthquake Activity

City Distance Mag. Time & Date
No recent earthquake activity has been reported nearby.
Minimum magnitude displayed is 2.5.

Coastal Water Temperatures

Place Temperature
De Tour Village, MI 50.0 °F
Rock Cut, MI 48.9 °F
Little Rapids, MI 52.0 °F
S W Pier, MI 51.1 °F
West Neebish, MI 52.0 °F

Nearby Weather Stations